Time;durP1;ratioP1;P1;durP2;ratioP2;P2;SDS_P1;SDS_P2;PMS_P1;PMS_P2;Temp;Humidity;BMP_temperature;BMP_pressure;BME280_temperature;BME280_humidity;BME280_pressure;Samples;Min_cycle;Max_cycle;Signal;HPM_P1;HPM_P2
2024/02/07 00:00:13;;;;;;;0.37;0.37;;;9.30;99.90;;;;;;4402977;32;20087;-75
2024/02/07 00:02:39;;;;;;;3.20;1.95;;;9.30;99.90;;;;;;4400603;32;20078;-76
2024/02/07 00:05:05;;;;;;;7.37;2.47;;;9.30;99.90;;;;;;4400534;32;20530;-77
2024/02/07 00:07:30;;;;;;;0.60;0.60;;;9.30;99.90;;;;;;4400363;32;20124;-76
2024/02/07 00:09:57;;;;;;;0.82;0.55;;;9.20;99.90;;;;;;4403871;32;20125;-76
2024/02/07 00:12:22;;;;;;;0.30;0.30;;;9.20;99.90;;;;;;4400057;32;20090;-76
2024/02/07 00:14:49;;;;;;;0.82;0.82;;;9.20;99.90;;;;;;4402466;32;20069;-76
2024/02/07 00:17:14;;;;;;;0.62;0.62;;;9.10;99.90;;;;;;4402373;32;20070;-75
2024/02/07 00:19:39;;;;;;;9.73;1.10;;;9.10;99.90;;;;;;4406088;32;20144;-75
2024/02/07 00:22:05;;;;;;;0.30;0.30;;;9.10;99.90;;;;;;4404475;32;20094;-76
2024/02/07 00:24:31;;;;;;;0.50;0.50;;;9.10;99.90;;;;;;4404444;32;20604;-75
2024/02/07 00:26:56;;;;;;;0.40;0.40;;;9.10;99.90;;;;;;4403518;32;20102;-74
2024/02/07 00:29:22;;;;;;;0.70;0.70;;;9.00;99.90;;;;;;4403650;32;20097;-76
2024/02/07 00:31:48;;;;;;;0.37;0.37;;;9.10;99.90;;;;;;4404270;32;20101;-76
2024/02/07 00:34:14;;;;;;;0.62;0.62;;;9.00;99.90;;;;;;4406055;32;20518;-76
2024/02/07 00:36:39;;;;;;;0.40;0.40;;;9.10;99.90;;;;;;4403868;32;20125;-75
2024/02/07 00:39:05;;;;;;;0.68;0.47;;;9.00;99.90;;;;;;4403556;32;20069;-76
2024/02/07 00:41:30;;;;;;;0.40;0.40;;;9.00;99.90;;;;;;4401912;32;20065;-75
2024/02/07 00:43:56;;;;;;;1.45;1.00;;;9.00;99.90;;;;;;4401510;32;20200;-76
2024/02/07 00:46:22;;;;;;;0.35;0.35;;;8.90;99.90;;;;;;4401239;32;20647;-75
2024/02/07 00:48:48;;;;;;;0.30;0.30;;;9.00;99.90;;;;;;4402484;32;20082;-76
2024/02/07 00:51:13;;;;;;;46.22;4.20;;;9.00;99.90;;;;;;4405438;32;20073;-75
2024/02/07 00:53:39;;;;;;;0.60;0.60;;;9.00;99.90;;;;;;4404647;32;20697;-74
2024/02/07 00:56:05;;;;;;;0.35;0.35;;;9.00;99.90;;;;;;4405578;32;20061;-74
2024/02/07 00:58:30;;;;;;;0.40;0.40;;;9.00;99.90;;;;;;4401089;32;20544;-76
2024/02/07 01:00:56;;;;;;;0.40;0.40;;;9.00;99.90;;;;;;4402154;32;20091;-77
2024/02/07 01:03:22;;;;;;;0.95;0.50;;;9.00;99.90;;;;;;4400838;32;20106;-76
2024/02/07 01:05:47;;;;;;;29.35;1.73;;;9.00;99.90;;;;;;4401100;32;20116;-76
2024/02/07 01:08:13;;;;;;;1.35;1.12;;;9.00;99.90;;;;;;4403784;32;20078;-76
2024/02/07 01:10:39;;;;;;;0.40;0.40;;;9.00;99.90;;;;;;4401384;32;20082;-77
2024/02/07 01:13:05;;;;;;;0.88;0.85;;;9.00;99.90;;;;;;4403166;32;20081;-76
2024/02/07 01:15:31;;;;;;;1.17;1.08;;;9.00;99.90;;;;;;4403218;32;20412;-76
2024/02/07 01:17:57;;;;;;;0.50;0.50;;;9.00;99.90;;;;;;4410741;32;20066;-76
2024/02/07 01:20:22;;;;;;;0.30;0.30;;;9.00;99.90;;;;;;4405927;32;20082;-76
2024/02/07 01:22:48;;;;;;;0.30;0.30;;;9.00;99.90;;;;;;4402518;32;20101;-77
2024/02/07 01:25:13;;;;;;;0.70;0.50;;;9.00;99.90;;;;;;4402795;32;20580;-77
2024/02/07 01:27:39;;;;;;;1.12;0.25;;;9.00;99.90;;;;;;4401983;32;20141;-76
2024/02/07 01:30:07;;;;;;;1.00;0.82;;;9.00;99.90;;;;;;4404795;32;20515;-76
2024/02/07 01:32:32;;;;;;;1.42;1.25;;;9.00;99.90;;;;;;4404523;32;20101;-77
2024/02/07 01:34:58;;;;;;;0.20;0.20;;;9.00;99.90;;;;;;4402336;32;20082;-76
2024/02/07 01:37:25;;;;;;;0.30;0.30;;;8.70;99.90;;;;;;4405246;32;20140;-76
2024/02/07 01:39:50;;;;;;;0.30;0.30;;;8.60;99.90;;;;;;4401040;32;20086;-76
2024/02/07 01:42:15;;;;;;;0.73;0.70;;;8.50;99.90;;;;;;4405157;32;20078;-76
2024/02/07 01:44:41;;;;;;;0.28;0.28;;;8.40;99.90;;;;;;4403893;32;20239;-76
2024/02/07 01:47:13;;;;;;;1.48;0.55;;;8.20;99.90;;;;;;4407199;32;20070;-78
2024/02/07 01:49:48;;;;;;;0.30;0.30;;;8.10;99.90;;;;;;4402902;32;20580;-77
2024/02/07 01:52:16;;;;;;;0.20;0.20;;;8.10;99.90;;;;;;4404354;32;20081;-78
2024/02/07 01:54:41;;;;;;;0.20;0.20;;;7.90;99.90;;;;;;4407253;32;20066;-77
2024/02/07 01:57:07;;;;;;;0.30;0.30;;;7.80;99.90;;;;;;4402107;32;20430;-77
2024/02/07 01:59:34;;;;;;;0.20;0.20;;;7.70;99.90;;;;;;4402430;32;20066;-77
2024/02/07 02:01:59;;;;;;;0.52;0.50;;;7.60;99.90;;;;;;4405813;32;20532;-78
2024/02/07 02:04:25;;;;;;;0.30;0.30;;;7.50;99.90;;;;;;4407035;32;20077;-77
2024/02/07 02:06:52;;;;;;;0.20;0.20;;;7.50;99.90;;;;;;4404033;32;20495;-78
2024/02/07 02:09:19;;;;;;;0.30;0.30;;;7.40;99.90;;;;;;4403663;32;20124;-78
2024/02/07 02:11:50;;;;;;;0.30;0.30;;;7.30;99.90;;;;;;4402281;32;20098;-78
2024/02/07 02:14:16;;;;;;;0.30;0.30;;;7.20;99.90;;;;;;4402745;32;20604;-78
2024/02/07 02:16:42;;;;;;;0.20;0.20;;;7.20;99.90;;;;;;4403141;32;20100;-76
2024/02/07 02:19:08;;;;;;;0.30;0.30;;;7.10;99.90;;;;;;4405774;32;20066;-78
2024/02/07 02:21:51;;;;;;;0.30;0.30;;;7.10;99.90;;;;;;4404382;32;21103;-77
2024/02/07 02:24:44;;;;;;;0.30;0.30;;;7.00;99.90;;;;;;4403440;32;20089;-77
2024/02/07 02:27:21;;;;;;;0.30;0.30;;;6.90;99.90;;;;;;4389134;32;20090;-77
2024/02/07 02:29:53;;;;;;;0.30;0.30;;;6.90;99.90;;;;;;4404122;32;20085;-77
2024/02/07 02:32:21;;;;;;;0.30;0.30;;;6.90;99.90;;;;;;4402621;32;20123;-77
2024/02/07 02:34:50;;;;;;;0.30;0.30;;;6.80;99.90;;;;;;4405645;32;20495;-76
2024/02/07 02:37:18;;;;;;;0.30;0.30;;;6.80;99.90;;;;;;4403469;32;20550;-77
2024/02/07 02:39:43;;;;;;;1.00;0.77;;;6.80;99.90;;;;;;4402830;32;20093;-77
2024/02/07 02:42:09;;;;;;;0.20;0.20;;;6.80;99.90;;;;;;4401613;32;20085;-77
2024/02/07 02:44:35;;;;;;;0.32;0.32;;;6.80;99.90;;;;;;4403357;32;20073;-76
2024/02/07 02:47:02;;;;;;;0.45;0.43;;;6.80;99.90;;;;;;4405697;32;20066;-76
2024/02/07 02:49:29;;;;;;;0.30;0.30;;;6.70;99.90;;;;;;4403758;32;20078;-76
2024/02/07 02:51:55;;;;;;;0.30;0.30;;;6.60;99.90;;;;;;4403707;32;20474;-76
2024/02/07 02:54:21;;;;;;;0.30;0.30;;;6.70;99.90;;;;;;4404045;32;20082;-75
2024/02/07 02:56:47;;;;;;;0.20;0.20;;;6.70;99.90;;;;;;4406735;32;20459;-77
2024/02/07 02:59:14;;;;;;;0.30;0.30;;;6.70;99.90;;;;;;4404318;32;20129;-77
2024/02/07 03:04:06;;;;;;;0.30;0.30;;;6.70;99.90;;;;;;4402820;32;20557;-77
2024/02/07 03:07:25;;;;;;;0.37;0.37;;;6.80;99.90;;;;;;4402396;32;20077;-77
2024/02/07 03:09:19;;;;;;;0.30;0.30;;;6.70;99.90;;;;;;4393390;32;20172;-77
2024/02/07 03:11:45;;;;;;;0.30;0.30;;;6.60;99.90;;;;;;4403107;32;20120;-77
2024/02/07 03:14:11;;;;;;;0.57;0.57;;;6.60;99.90;;;;;;4405356;32;20076;-77
2024/02/07 03:16:37;;;;;;;0.30;0.30;;;6.60;99.90;;;;;;4405685;32;20101;-77
2024/02/07 03:19:03;;;;;;;0.45;0.45;;;6.60;99.90;;;;;;4404795;32;20094;-76
2024/02/07 03:21:30;;;;;;;0.30;0.30;;;6.60;99.90;;;;;;4404753;32;20185;-76
2024/02/07 03:23:55;;;;;;;0.30;0.30;;;6.60;99.90;;;;;;4397582;32;20120;-76
2024/02/07 03:26:23;;;;;;;0.20;0.20;;;6.50;99.90;;;;;;4399890;32;20588;-75
2024/02/07 03:28:51;;;;;;;0.30;0.30;;;6.50;99.90;;;;;;4404445;32;20074;-76
2024/02/07 03:31:20;;;;;;;0.20;0.20;;;6.40;99.90;;;;;;4405930;32;20129;-75
2024/02/07 03:33:47;;;;;;;0.30;0.30;;;6.40;99.90;;;;;;4402590;32;20072;-76
2024/02/07 03:36:12;;;;;;;0.60;0.60;;;6.30;99.90;;;;;;4403667;32;20086;-78
2024/02/07 03:38:38;;;;;;;0.30;0.30;;;6.30;99.90;;;;;;4400388;32;20073;-77
2024/02/07 03:41:05;;;;;;;0.20;0.20;;;6.30;99.90;;;;;;4406550;32;20097;-77
2024/02/07 03:43:33;;;;;;;0.30;0.30;;;6.20;99.90;;;;;;4404926;32;20066;-77
2024/02/07 03:46:05;;;;;;;2.53;0.95;;;6.20;99.90;;;;;;4402963;32;20081;-76
2024/02/07 03:48:31;;;;;;;0.28;0.28;;;6.30;99.90;;;;;;4402485;32;20082;-76
2024/02/07 03:50:58;;;;;;;0.30;0.30;;;6.30;99.90;;;;;;4406912;32;20073;-74
2024/02/07 03:53:25;;;;;;;0.30;0.30;;;6.20;99.90;;;;;;4402669;32;20439;-75
2024/02/07 03:55:50;;;;;;;0.40;0.40;;;6.00;99.90;;;;;;4403218;32;20485;-74
2024/02/07 03:58:19;;;;;;;0.22;0.22;;;5.80;99.90;;;;;;4404208;32;20085;-77
2024/02/07 04:00:44;;;;;;;0.30;0.30;;;5.70;99.90;;;;;;4399262;32;20538;-77
2024/02/07 04:03:10;;;;;;;0.30;0.30;;;5.70;99.90;;;;;;4404103;32;20077;-77
2024/02/07 04:05:35;;;;;;;0.30;0.30;;;5.60;99.90;;;;;;4400569;32;20539;-78
2024/02/07 04:08:01;;;;;;;0.30;0.30;;;5.50;99.90;;;;;;4402223;32;20129;-77
2024/02/07 04:10:26;;;;;;;0.28;0.28;;;5.40;99.90;;;;;;4397826;32;20069;-78
2024/02/07 05:16:11;;;;;;;0.30;0.30;;;4.50;99.90;;;;;;4391883;32;20081;-74
2024/02/07 05:18:38;;;;;;;0.30;0.30;;;4.50;99.90;;;;;;4405057;32;20633;-76
2024/02/07 05:21:03;;;;;;;0.30;0.30;;;4.50;99.90;;;;;;4400913;32;20093;-76
2024/02/07 05:23:29;;;;;;;0.30;0.30;;;4.50;99.90;;;;;;4403775;32;20094;-76
2024/02/07 05:25:58;;;;;;;0.30;0.30;;;4.50;99.90;;;;;;4401401;32;20553;-74
2024/02/07 05:28:23;;;;;;;0.30;0.30;;;4.40;99.90;;;;;;4390473;32;20077;-75
2024/02/07 05:30:54;;;;;;;0.35;0.35;;;4.30;99.90;;;;;;4407155;32;20089;-75
2024/02/07 05:33:19;;;;;;;0.30;0.30;;;4.20;99.90;;;;;;4407994;32;20102;-74
2024/02/07 05:35:45;;;;;;;0.20;0.20;;;4.20;99.90;;;;;;4405130;32;20138;-75
2024/02/07 05:38:11;;;;;;;1.65;1.15;;;4.20;99.90;;;;;;4406154;32;20083;-75
2024/02/07 05:43:05;;;;;;;0.30;0.30;;;4.00;99.90;;;;;;4407644;32;20075;-74
2024/02/07 05:45:31;;;;;;;0.40;0.40;;;4.10;99.90;;;;;;4393962;32;20141;-75
2024/02/07 05:47:56;;;;;;;0.30;0.30;;;4.10;99.90;;;;;;4406914;32;20086;-75
2024/02/07 05:50:22;;;;;;;0.30;0.30;;;4.10;99.90;;;;;;4409862;32;20081;-75
2024/02/07 05:52:48;;;;;;;0.30;0.30;;;4.10;99.90;;;;;;4402248;32;20093;-75
2024/02/07 05:55:14;;;;;;;0.40;0.40;;;4.10;99.90;;;;;;4401395;32;20161;-75
2024/02/07 05:57:39;;;;;;;2.03;0.95;;;4.20;99.90;;;;;;4405425;32;20070;-75
2024/02/07 06:00:07;;;;;;;0.88;0.55;;;4.10;99.90;;;;;;4404847;32;20412;-75
2024/02/07 06:02:34;;;;;;;0.22;0.22;;;4.10;99.90;;;;;;4402634;32;20098;-75
2024/02/07 06:05:07;;;;;;;0.45;0.45;;;4.10;99.90;;;;;;4406295;32;20070;-75
2024/02/07 06:07:33;;;;;;;0.22;0.22;;;4.10;99.90;;;;;;4393278;32;20535;-77
2024/02/07 06:10:00;;;;;;;0.30;0.30;;;4.10;99.90;;;;;;4406412;32;20074;-77
2024/02/07 06:12:27;;;;;;;0.30;0.30;;;4.10;99.90;;;;;;4402211;32;20149;-77
2024/02/07 06:14:56;;;;;;;0.40;0.40;;;4.00;99.90;;;;;;4390303;32;20599;-77
2024/02/07 06:17:22;;;;;;;1.75;0.93;;;4.00;99.90;;;;;;4401637;32;20641;-77
2024/02/07 06:19:47;;;;;;;0.30;0.30;;;4.00;99.90;;;;;;4401882;32;20136;-77
2024/02/07 06:22:14;;;;;;;0.75;0.75;;;4.10;99.90;;;;;;4391960;32;20135;-77
2024/02/07 06:24:40;;;;;;;0.30;0.30;;;4.20;99.90;;;;;;4408681;32;20133;-78
2024/02/07 06:27:06;;;;;;;0.30;0.30;;;4.20;99.90;;;;;;4383746;32;21153;-77
2024/02/07 06:29:31;;;;;;;0.82;0.82;;;4.20;99.90;;;;;;4402585;32;20109;-77
2024/02/07 06:31:59;;;;;;;0.30;0.30;;;4.10;99.90;;;;;;4403826;32;20066;-78
2024/02/07 06:34:25;;;;;;;0.35;0.35;;;4.10;99.90;;;;;;4397988;32;20093;-77
2024/02/07 06:36:50;;;;;;;0.30;0.30;;;4.20;99.90;;;;;;4400758;32;20074;-76
2024/02/07 06:39:17;;;;;;;0.30;0.30;;;4.10;99.90;;;;;;4401107;32;20092;-77
2024/02/07 06:41:42;;;;;;;0.70;0.60;;;4.10;99.90;;;;;;4404045;32;20098;-77
2024/02/07 06:44:08;;;;;;;0.40;0.40;;;4.10;99.90;;;;;;4404914;32;20069;-78
2024/02/07 06:46:41;;;;;;;0.32;0.32;;;4.10;99.90;;;;;;4404185;32;20061;-76
2024/02/07 06:49:06;;;;;;;0.30;0.30;;;4.20;99.90;;;;;;4408444;32;20077;-77
2024/02/07 06:51:32;;;;;;;0.40;0.40;;;4.20;99.90;;;;;;4404924;32;20566;-78
2024/02/07 06:53:57;;;;;;;0.30;0.30;;;4.30;99.90;;;;;;4406351;32;20076;-76
2024/02/07 06:56:22;;;;;;;0.30;0.30;;;4.30;99.90;;;;;;4404705;32;20082;-77
2024/02/07 06:58:48;;;;;;;0.30;0.30;;;4.30;99.90;;;;;;4404634;32;20848;-76
2024/02/07 07:01:15;;;;;;;2.62;1.80;;;4.20;99.90;;;;;;4399725;32;20102;-75
2024/02/07 07:03:41;;;;;;;0.37;0.37;;;4.20;99.90;;;;;;4405013;32;20070;-76
2024/02/07 07:06:06;;;;;;;0.82;0.62;;;4.20;99.90;;;;;;4402457;32;20283;-76
2024/02/07 07:08:32;;;;;;;0.50;0.50;;;4.20;99.90;;;;;;4394466;32;20467;-77
2024/02/07 07:10:59;;;;;;;0.30;0.30;;;4.20;99.90;;;;;;4405617;32;20125;-77
2024/02/07 07:13:25;;;;;;;0.52;0.52;;;4.20;99.90;;;;;;4402488;32;20463;-76
2024/02/07 07:15:50;;;;;;;0.37;0.37;;;4.20;99.90;;;;;;4401556;32;20081;-76
2024/02/07 07:18:16;;;;;;;0.45;0.45;;;4.20;99.90;;;;;;4404846;32;20551;-76
2024/02/07 07:20:42;;;;;;;0.40;0.40;;;4.20;99.90;;;;;;4401355;32;20328;-76
2024/02/07 07:23:08;;;;;;;0.68;0.68;;;4.30;99.90;;;;;;4405569;32;20085;-75
2024/02/07 07:25:34;;;;;;;0.30;0.30;;;4.40;99.90;;;;;;4402456;32;20077;-75
2024/02/07 07:28:00;;;;;;;0.60;0.60;;;4.40;99.90;;;;;;4404973;32;20644;-75
2024/02/07 07:30:26;;;;;;;0.60;0.60;;;4.30;99.90;;;;;;4401213;32;20093;-76
2024/02/07 07:32:51;;;;;;;0.50;0.50;;;4.40;99.90;;;;;;4404645;32;20120;-74
2024/02/07 07:35:17;;;;;;;0.30;0.30;;;4.40;99.90;;;;;;4400997;32;20073;-76
2024/02/07 07:37:43;;;;;;;2.40;1.65;;;4.40;99.90;;;;;;4402826;32;20183;-75
2024/02/07 07:40:10;;;;;;;0.30;0.30;;;4.50;99.90;;;;;;4404427;32;20069;-77
2024/02/07 07:42:36;;;;;;;0.30;0.30;;;4.50;99.90;;;;;;4404660;32;20062;-75
2024/02/07 07:45:01;;;;;;;1.10;0.93;;;4.50;99.90;;;;;;4405300;32;20140;-75
2024/02/07 07:47:27;;;;;;;2.30;1.55;;;4.50;99.90;;;;;;4401758;32;20081;-76
2024/02/07 07:49:52;;;;;;;0.30;0.30;;;4.60;99.90;;;;;;4403752;32;20435;-76
2024/02/07 07:52:18;;;;;;;0.40;0.40;;;4.60;99.90;;;;;;4404030;32;20076;-77
2024/02/07 07:54:44;;;;;;;0.30;0.30;;;4.60;99.90;;;;;;4407528;32;20069;-76
2024/02/07 07:57:10;;;;;;;0.35;0.35;;;4.60;99.90;;;;;;4402795;32;20083;-77
2024/02/07 07:59:35;;;;;;;1.17;0.88;;;4.60;99.90;;;;;;4402088;32;20494;-77
2024/02/07 08:02:02;;;;;;;0.30;0.30;;;4.60;99.90;;;;;;4403638;32;20470;-78
2024/02/07 08:04:28;;;;;;;4.00;0.77;;;4.60;99.90;;;;;;4400778;32;20081;-78
2024/02/07 08:06:55;;;;;;;0.30;0.30;;;4.60;99.90;;;;;;4403588;32;20540;-78
2024/02/07 08:09:21;;;;;;;1.40;1.02;;;4.60;99.90;;;;;;4401938;32;20241;-78
2024/02/07 08:11:49;;;;;;;0.30;0.30;;;4.60;99.90;;;;;;4404136;32;20069;-77
2024/02/07 08:14:15;;;;;;;2.17;1.62;;;4.60;99.90;;;;;;4402082;32;20086;-77
2024/02/07 08:16:42;;;;;;;2.72;1.15;;;4.60;99.90;;;;;;4398733;32;20085;-78
2024/02/07 08:19:11;;;;;;;1.15;0.82;;;4.50;99.90;;;;;;4402520;32;20092;-77
2024/02/07 08:21:37;;;;;;;0.30;0.30;;;4.60;99.90;;;;;;4401727;32;20529;-78
2024/02/07 08:24:03;;;;;;;0.30;0.30;;;4.70;99.90;;;;;;4402366;32;20140;-78
2024/02/07 08:26:28;;;;;;;0.60;0.60;;;4.70;99.90;;;;;;4405598;32;20078;-77
2024/02/07 08:28:54;;;;;;;0.43;0.43;;;4.70;99.90;;;;;;4403457;32;20093;-78
2024/02/07 08:31:20;;;;;;;0.30;0.30;;;4.70;99.90;;;;;;4401542;32;20073;-78
2024/02/07 08:33:46;;;;;;;0.80;0.80;;;4.80;99.90;;;;;;4399808;32;20066;-78
2024/02/07 08:36:11;;;;;;;0.32;0.32;;;4.80;99.90;;;;;;4403858;32;20482;-78
2024/02/07 08:38:37;;;;;;;27.95;1.98;;;4.80;99.90;;;;;;4399913;32;20185;-78
2024/02/07 08:41:04;;;;;;;0.30;0.30;;;4.80;99.90;;;;;;4399947;32;20451;-78
2024/02/07 08:43:30;;;;;;;2.10;1.50;;;4.80;99.90;;;;;;4399592;32;20069;-78
2024/02/07 08:45:56;;;;;;;0.50;0.50;;;4.80;99.90;;;;;;4403028;32;20089;-76
2024/02/07 08:48:21;;;;;;;0.32;0.32;;;4.80;99.90;;;;;;4400584;32;20098;-76
2024/02/07 08:50:47;;;;;;;0.50;0.50;;;4.80;99.90;;;;;;4400688;32;20077;-76
2024/02/07 08:53:12;;;;;;;0.50;0.50;;;4.90;99.90;;;;;;4403505;32;20817;-77
2024/02/07 08:55:38;;;;;;;0.30;0.30;;;4.90;99.90;;;;;;4403712;32;20090;-76
2024/02/07 08:58:04;;;;;;;1.77;0.93;;;4.90;99.90;;;;;;4402147;32;20066;-75
2024/02/07 09:00:29;;;;;;;0.40;0.40;;;4.90;99.90;;;;;;4403891;32;20065;-77
2024/02/07 09:02:55;;;;;;;0.30;0.30;;;5.00;99.90;;;;;;4398614;32;20163;-75
2024/02/07 09:05:20;;;;;;;0.50;0.50;;;5.00;99.90;;;;;;4399639;32;20082;-78
2024/02/07 09:07:47;;;;;;;0.40;0.40;;;5.00;99.90;;;;;;4404030;32;20094;-75
2024/02/07 09:10:12;;;;;;;0.35;0.35;;;5.00;99.90;;;;;;4400798;32;20076;-76
2024/02/07 09:12:38;;;;;;;0.37;0.37;;;5.00;99.90;;;;;;4403328;32;20137;-75
2024/02/07 09:15:04;;;;;;;0.30;0.30;;;5.10;99.90;;;;;;4399396;32;20078;-76
2024/02/07 09:17:33;;;;;;;0.30;0.30;;;5.10;99.90;;;;;;4399061;32;20082;-78
2024/02/07 09:19:58;;;;;;;4.78;1.60;;;5.00;99.90;;;;;;4401105;32;20082;-80
2024/02/07 09:22:24;;;;;;;0.30;0.30;;;5.10;99.90;;;;;;4401017;32;20141;-79
2024/02/07 09:24:49;;;;;;;0.77;0.77;;;5.10;99.90;;;;;;4400360;32;21670;-79
2024/02/07 09:27:15;;;;;;;1.98;1.10;;;5.00;99.90;;;;;;4402964;32;20173;-78
2024/02/07 09:29:40;;;;;;;1.45;1.35;;;4.90;99.90;;;;;;4404420;32;20525;-78
2024/02/07 09:32:06;;;;;;;0.30;0.30;;;4.90;99.90;;;;;;4400736;32;20527;-78
2024/02/07 09:34:31;;;;;;;0.98;0.93;;;4.90;99.90;;;;;;4404566;32;20082;-79
2024/02/07 09:36:57;;;;;;;1.20;0.82;;;4.90;99.90;;;;;;4402127;32;20522;-76
2024/02/07 09:39:23;;;;;;;0.30;0.30;;;4.90;99.90;;;;;;4402547;32;20072;-77
2024/02/07 09:41:50;;;;;;;0.30;0.30;;;4.90;99.90;;;;;;4403624;32;20090;-74
2024/02/07 09:44:18;;;;;;;1.00;0.62;;;4.90;99.90;;;;;;4403097;32;20066;-75
2024/02/07 09:46:44;;;;;;;3.03;0.95;;;5.00;99.90;;;;;;4403565;32;20066;-76
2024/02/07 09:49:12;;;;;;;0.30;0.30;;;5.00;99.90;;;;;;4404646;32;20108;-75
2024/02/07 09:51:40;;;;;;;1.08;1.05;;;5.00;99.90;;;;;;4402589;32;20660;-77
2024/02/07 09:54:11;;;;;;;0.70;0.70;;;5.10;99.90;;;;;;4404376;32;20070;-75
2024/02/07 09:56:39;;;;;;;2.05;0.82;;;5.20;99.90;;;;;;4403792;32;20085;-76
2024/02/07 09:59:09;;;;;;;0.52;0.47;;;5.30;99.90;;;;;;4402632;32;20081;-75
2024/02/07 10:01:37;;;;;;;0.40;0.40;;;5.40;99.90;;;;;;4402474;32;20086;-74
2024/02/07 10:04:03;;;;;;;0.32;0.32;;;5.50;99.90;;;;;;4406683;32;20136;-76
2024/02/07 10:06:28;;;;;;;0.40;0.40;;;5.60;99.90;;;;;;4406860;32;20089;-77
2024/02/07 10:08:54;;;;;;;0.30;0.30;;;5.60;99.90;;;;;;4403237;32;20093;-76
2024/02/07 10:11:21;;;;;;;0.77;0.65;;;5.70;99.90;;;;;;4403763;32;20106;-75
2024/02/07 10:13:46;;;;;;;0.30;0.30;;;5.60;99.90;;;;;;4402486;32;20090;-76
2024/02/07 10:16:12;;;;;;;2.95;0.80;;;5.50;99.90;;;;;;4401358;32;20478;-75
2024/02/07 10:18:38;;;;;;;0.35;0.35;;;5.50;99.90;;;;;;4399821;32;20391;-77
2024/02/07 10:21:03;;;;;;;0.77;0.77;;;5.60;99.90;;;;;;4405053;32;20096;-76
2024/02/07 10:23:31;;;;;;;0.35;0.35;;;5.50;99.90;;;;;;4398514;32;20074;-76
2024/02/07 10:25:57;;;;;;;0.60;0.60;;;5.50;99.90;;;;;;4402628;32;20081;-75
2024/02/07 10:28:26;;;;;;;0.60;0.60;;;5.60;99.90;;;;;;4401178;32;20085;-76
2024/02/07 10:30:59;;;;;;;0.40;0.40;;;5.70;99.90;;;;;;4402435;32;20089;-77
2024/02/07 10:33:34;;;;;;;0.30;0.30;;;5.80;99.90;;;;;;4406075;32;20062;-77
2024/02/07 10:36:02;;;;;;;0.50;0.50;;;5.90;99.90;;;;;;4403767;32;20090;-77
2024/02/07 10:38:28;;;;;;;0.40;0.40;;;5.90;99.90;;;;;;4399731;32;20152;-77
2024/02/07 10:40:54;;;;;;;0.95;0.95;;;6.00;99.90;;;;;;4407262;32;20073;-78
2024/02/07 10:43:24;;;;;;;0.30;0.30;;;6.00;99.90;;;;;;4400214;32;20074;-77
2024/02/07 10:46:08;;;;;;;0.50;0.50;;;6.10;99.90;;;;;;4403772;32;20082;-77
2024/02/07 10:48:34;;;;;;;0.20;0.20;;;6.10;99.90;;;;;;4402969;32;20073;-76
2024/02/07 10:51:02;;;;;;;0.40;0.40;;;6.20;99.90;;;;;;4403723;32;20090;-79
2024/02/07 10:53:28;;;;;;;1.85;1.00;;;6.10;99.90;;;;;;4391809;32;20347;-76
2024/02/07 10:55:56;;;;;;;0.30;0.30;;;6.00;99.90;;;;;;4404180;32;20537;-76
2024/02/07 10:58:22;;;;;;;1.65;1.23;;;6.00;99.90;;;;;;4396052;32;20094;-76
2024/02/07 11:00:51;;;;;;;0.65;0.65;;;6.00;99.90;;;;;;4405234;32;20070;-76
2024/02/07 11:03:20;;;;;;;1.65;0.93;;;6.00;99.90;;;;;;4404176;32;20065;-76
2024/02/07 11:05:48;;;;;;;0.43;0.43;;;6.00;99.90;;;;;;4404607;32;20509;-76
2024/02/07 11:08:14;;;;;;;0.65;0.65;;;6.00;99.90;;;;;;4404076;32;20098;-76
2024/02/07 11:10:40;;;;;;;0.30;0.30;;;6.00;99.90;;;;;;4403557;32;20081;-74
2024/02/07 11:13:09;;;;;;;0.40;0.40;;;6.00;99.90;;;;;;4401815;32;20501;-77
2024/02/07 11:15:35;;;;;;;0.45;0.45;;;6.00;99.90;;;;;;4398820;32;20529;-75
2024/02/07 11:18:01;;;;;;;0.77;0.77;;;6.10;99.90;;;;;;4400317;32;20085;-77
2024/02/07 11:20:28;;;;;;;0.22;0.22;;;6.20;99.90;;;;;;4401507;32;20078;-76
2024/02/07 11:22:56;;;;;;;1.37;1.10;;;6.30;99.90;;;;;;4401251;32;20094;-77
2024/02/07 11:25:24;;;;;;;0.40;0.40;;;6.30;99.90;;;;;;4403028;32;20077;-77
2024/02/07 11:27:51;;;;;;;6.12;1.95;;;6.40;99.90;;;;;;4399511;32;20093;-76
2024/02/07 11:30:18;;;;;;;0.30;0.30;;;6.30;99.90;;;;;;4402243;32;20094;-76
2024/02/07 11:32:46;;;;;;;0.40;0.40;;;6.30;99.90;;;;;;4402112;32;20094;-77
2024/02/07 11:35:12;;;;;;;0.40;0.40;;;6.40;99.90;;;;;;4405706;32;20527;-76
2024/02/07 11:37:38;;;;;;;0.68;0.68;;;6.30;99.90;;;;;;4403012;32;20082;-75
2024/02/07 11:40:06;;;;;;;0.65;0.65;;;6.20;99.90;;;;;;4404323;32;20532;-75
2024/02/07 11:42:40;;;;;;;0.65;0.65;;;6.30;99.90;;;;;;4402009;32;20092;-77
2024/02/07 11:45:12;;;;;;;3.60;1.77;;;6.60;99.90;;;;;;4407609;32;20517;-76
2024/02/07 11:47:42;;;;;;;0.30;0.30;;;6.80;99.90;;;;;;4404090;32;20088;-77
2024/02/07 11:50:12;;;;;;;0.35;0.35;;;6.90;99.90;;;;;;4404317;32;20738;-77
2024/02/07 11:52:39;;;;;;;0.45;0.45;;;7.00;99.90;;;;;;4405885;32;82289;-77
2024/02/07 11:55:10;;;;;;;4.70;1.85;;;7.10;99.90;;;;;;4405290;32;20102;-77
2024/02/07 11:57:40;;;;;;;0.70;0.70;;;7.30;99.90;;;;;;4401582;32;20191;-77
2024/02/07 12:02:36;;;;;;;0.30;0.30;;;7.50;99.90;;;;;;4401831;32;20090;-78
2024/02/07 12:05:03;;;;;;;0.20;0.20;;;7.50;99.90;;;;;;4404226;32;20127;-77
2024/02/07 12:07:31;;;;;;;0.30;0.30;;;7.50;99.90;;;;;;4405360;32;20669;-76
2024/02/07 12:09:58;;;;;;;0.30;0.30;;;7.60;99.90;;;;;;4402168;32;20518;-78
2024/02/07 12:12:24;;;;;;;3.28;1.42;;;7.40;99.90;;;;;;4403213;32;20062;-76
2024/02/07 12:14:50;;;;;;;0.30;0.30;;;7.40;99.90;;;;;;4401217;32;20073;-76
2024/02/07 12:17:17;;;;;;;0.28;0.28;;;7.30;99.90;;;;;;4402876;32;20069;-78
2024/02/07 12:19:44;;;;;;;0.20;0.20;;;7.20;99.90;;;;;;4405137;32;20074;-75
2024/02/07 12:22:18;;;;;;;0.50;0.50;;;7.20;99.90;;;;;;4403770;32;20098;-78
2024/02/07 12:24:44;;;;;;;0.20;0.20;;;7.20;99.90;;;;;;4407214;32;20141;-77
2024/02/07 12:27:13;;;;;;;0.30;0.30;;;7.20;99.90;;;;;;4406889;32;20082;-76
2024/02/07 12:29:40;;;;;;;0.43;0.43;;;7.30;99.90;;;;;;4403254;32;20162;-76
2024/02/07 12:32:06;;;;;;;0.50;0.50;;;7.30;99.90;;;;;;4402815;32;20074;-76
2024/02/07 12:34:34;;;;;;;0.30;0.30;;;7.20;99.90;;;;;;4403820;32;20591;-76
2024/02/07 12:37:00;;;;;;;0.73;0.73;;;7.10;99.90;;;;;;4401035;32;20455;-77
2024/02/07 12:39:27;;;;;;;0.40;0.40;;;7.00;99.90;;;;;;4402850;32;20074;-75
2024/02/07 12:41:53;;;;;;;0.37;0.37;;;7.00;99.90;;;;;;4398113;32;20144;-78
2024/02/07 12:44:19;;;;;;;0.60;0.60;;;6.90;99.90;;;;;;4404902;32;20285;-78
2024/02/07 12:46:45;;;;;;;0.40;0.40;;;6.90;99.90;;;;;;4402946;32;20793;-78
2024/02/07 12:49:10;;;;;;;4.78;0.77;;;7.00;99.90;;;;;;4406540;32;20615;-77
2024/02/07 12:51:36;;;;;;;8.48;0.85;;;7.00;99.90;;;;;;4404499;32;20132;-78
2024/02/07 12:54:02;;;;;;;0.40;0.40;;;7.00;99.90;;;;;;4406683;32;20104;-76
2024/02/07 12:56:29;;;;;;;0.75;0.75;;;7.00;99.90;;;;;;4405763;32;20451;-78
2024/02/07 12:58:55;;;;;;;1.17;1.08;;;7.00;99.90;;;;;;4402403;32;20600;-77
2024/02/07 13:01:22;;;;;;;0.40;0.40;;;7.00;99.90;;;;;;4405831;32;20446;-77
2024/02/07 13:03:47;;;;;;;1.35;0.85;;;7.00;99.90;;;;;;4406856;32;20074;-77
2024/02/07 13:06:14;;;;;;;2.40;0.73;;;7.00;99.90;;;;;;4409147;32;20086;-77
2024/02/07 13:08:40;;;;;;;0.60;0.60;;;7.10;99.90;;;;;;4408270;32;20596;-75
2024/02/07 13:11:05;;;;;;;0.45;0.45;;;7.00;99.90;;;;;;4406866;32;20132;-76
2024/02/07 13:13:31;;;;;;;3.85;1.02;;;6.90;99.90;;;;;;4408290;32;20073;-77
2024/02/07 13:15:58;;;;;;;0.68;0.68;;;6.90;99.90;;;;;;4404765;32;20082;-77
2024/02/07 13:18:24;;;;;;;2.87;0.43;;;6.80;99.90;;;;;;4407915;32;20073;-77
2024/02/07 13:20:50;;;;;;;1.27;0.75;;;6.80;99.90;;;;;;4406330;32;20548;-77
2024/02/07 13:23:18;;;;;;;0.30;0.30;;;6.80;99.90;;;;;;4408145;32;20073;-76
2024/02/07 13:25:46;;;;;;;4.15;1.20;;;6.90;99.90;;;;;;4401704;32;20089;-77
2024/02/07 13:28:13;;;;;;;2.85;1.15;;;6.90;99.90;;;;;;4403698;32;20078;-76
2024/02/07 13:30:39;;;;;;;0.68;0.35;;;6.80;99.90;;;;;;4405758;32;20510;-75
2024/02/07 13:33:05;;;;;;;0.30;0.30;;;6.70;99.90;;;;;;4406466;32;20099;-75
2024/02/07 13:35:31;;;;;;;0.40;0.40;;;6.80;99.90;;;;;;4405843;32;20408;-76
2024/02/07 13:38:00;;;;;;;0.30;0.30;;;6.70;99.90;;;;;;4406134;32;20486;-77
2024/02/07 13:40:26;;;;;;;0.30;0.30;;;6.70;99.90;;;;;;4402600;32;20085;-76
2024/02/07 13:42:53;;;;;;;5.93;0.95;;;6.80;99.90;;;;;;4405788;32;20089;-79
2024/02/07 13:45:19;;;;;;;1.55;0.73;;;6.70;99.90;;;;;;4403863;32;20664;-76
2024/02/07 13:47:46;;;;;;;0.32;0.32;;;6.80;99.90;;;;;;4405514;32;20071;-77
2024/02/07 13:50:11;;;;;;;0.30;0.30;;;6.90;99.90;;;;;;4402200;32;20094;-75
2024/02/07 13:52:38;;;;;;;1.48;1.15;;;6.90;99.90;;;;;;4407915;32;20407;-78
2024/02/07 13:55:04;;;;;;;0.20;0.20;;;6.90;99.90;;;;;;4408462;32;20588;-77
2024/02/07 13:57:29;;;;;;;13.25;0.95;;;6.80;99.90;;;;;;4402267;32;20114;-78
2024/02/07 13:59:55;;;;;;;0.80;0.68;;;6.70;99.90;;;;;;4403063;32;20491;-77
2024/02/07 14:02:20;;;;;;;4.50;1.05;;;6.70;99.90;;;;;;4404138;32;20549;-75
2024/02/07 14:04:46;;;;;;;0.20;0.20;;;6.60;99.90;;;;;;4404053;32;20198;-75